createdAt,value
2019-03-19T00:01:41.348Z,25.68
2019-03-19T00:04:10.269Z,24.37
2019-03-19T00:06:38.947Z,16.60
2019-03-19T00:09:08.315Z,24.37
2019-03-19T00:11:36.977Z,16.55
2019-03-19T00:14:06.004Z,19.50
2019-03-19T00:16:34.995Z,22.02
2019-03-19T00:19:04.115Z,29.15
2019-03-19T00:21:32.861Z,23.18
2019-03-19T00:24:01.795Z,26.95
2019-03-19T00:26:30.823Z,31.40
2019-03-19T00:28:59.509Z,34.10
2019-03-19T00:31:28.459Z,23.87
2019-03-19T00:33:57.179Z,32.75
2019-03-19T00:36:25.875Z,30.25
2019-03-19T00:38:54.596Z,25.85
2019-03-19T00:41:23.369Z,34.60
2019-03-19T00:43:54.498Z,50.88
2019-03-19T00:46:23.463Z,54.40
2019-03-19T00:48:52.455Z,42.10
2019-03-19T00:51:22.019Z,46.48
2019-03-19T00:53:51.011Z,40.92
2019-03-19T00:56:20.416Z,41.33
2019-03-19T00:58:49.457Z,35.00
2019-03-19T01:01:18.714Z,32.33
2019-03-19T01:03:47.421Z,33.53
2019-03-19T01:06:16.401Z,30.10
2019-03-19T01:08:45.385Z,25.00
2019-03-19T01:11:14.543Z,24.07
2019-03-19T01:13:43.224Z,21.07
2019-03-19T01:16:12.250Z,23.55
2019-03-19T01:18:41.241Z,24.60
2019-03-19T01:21:10.293Z,27.25
2019-03-19T01:23:39.009Z,21.50
2019-03-19T01:26:07.702Z,25.08
2019-03-19T01:28:36.645Z,22.77
2019-03-19T01:31:05.439Z,29.67
2019-03-19T01:33:34.430Z,26.20
2019-03-19T01:36:03.385Z,24.65
2019-03-19T01:38:32.064Z,22.22
2019-03-19T01:41:00.749Z,23.00
2019-03-19T01:43:29.443Z,17.80
2019-03-19T01:45:58.575Z,19.67
2019-03-19T01:48:27.266Z,24.12
2019-03-19T01:50:56.251Z,27.17
2019-03-19T01:53:24.977Z,26.00
2019-03-19T01:56:04.432Z,20.62
2019-03-19T01:58:24.088Z,20.90
2019-03-19T02:00:53.042Z,23.20
2019-03-19T02:03:21.729Z,21.95
2019-03-19T02:05:51.025Z,20.55
2019-03-19T02:08:19.715Z,24.87
2019-03-19T02:10:48.401Z,23.32
2019-03-19T02:13:17.090Z,22.73
2019-03-19T02:15:45.827Z,17.62
2019-03-19T02:18:14.760Z,24.87
2019-03-19T02:20:43.449Z,20.82
2019-03-19T02:23:12.154Z,35.63
2019-03-19T02:25:40.852Z,24.95
2019-03-19T02:28:09.818Z,33.60
2019-03-19T02:30:38.827Z,24.27
2019-03-19T02:33:07.496Z,26.25
2019-03-19T02:35:36.162Z,31.40
2019-03-19T02:38:04.909Z,24.63
2019-03-19T02:40:33.628Z,21.82
2019-03-19T02:43:02.287Z,30.00
2019-03-19T02:45:30.962Z,31.25
2019-03-19T02:48:00.011Z,26.52
2019-03-19T02:50:29.114Z,20.68
2019-03-19T02:52:57.793Z,23.95
2019-03-19T02:55:27.086Z,18.05
2019-03-19T02:57:55.761Z,21.15
2019-03-19T03:00:24.466Z,21.25
2019-03-19T03:02:53.151Z,19.25
2019-03-19T03:05:22.353Z,20.68
2019-03-19T03:07:51.024Z,25.90
2019-03-19T03:10:19.690Z,19.25
2019-03-19T03:12:48.704Z,20.88
2019-03-19T03:15:17.776Z,24.43
2019-03-19T03:17:46.431Z,26.27
2019-03-19T03:20:15.326Z,22.02
2019-03-19T03:22:44.164Z,21.07
2019-03-19T03:25:13.039Z,19.73
2019-03-19T03:27:41.760Z,23.42
2019-03-19T03:30:11.755Z,24.00
2019-03-19T03:32:40.450Z,25.05
2019-03-19T03:35:10.074Z,23.15
2019-03-19T03:37:39.061Z,25.12
2019-03-19T03:40:09.335Z,25.30
2019-03-19T03:42:38.084Z,23.52
2019-03-19T03:45:07.408Z,22.45
2019-03-19T03:47:36.453Z,20.43
2019-03-19T03:50:05.710Z,30.10
2019-03-19T03:52:34.367Z,27.60
2019-03-19T03:55:03.756Z,20.50
2019-03-19T03:57:32.734Z,27.35
2019-03-19T04:00:01.956Z,19.80
2019-03-19T04:02:30.716Z,28.20
2019-03-19T04:04:59.402Z,22.58
2019-03-19T04:07:28.088Z,21.10
2019-03-19T04:09:57.274Z,28.23
2019-03-19T04:12:25.952Z,28.60
2019-03-19T04:14:54.637Z,31.93
2019-03-19T04:17:23.568Z,29.60
2019-03-19T04:19:53.025Z,23.60
2019-03-19T04:22:24.346Z,22.52
2019-03-19T04:24:53.597Z,21.48
2019-03-19T04:27:22.341Z,27.50
2019-03-19T04:29:51.020Z,20.05
2019-03-19T04:32:20.270Z,30.08
2019-03-19T04:34:48.939Z,22.40
2019-03-19T04:37:17.636Z,25.45
2019-03-19T04:39:49.397Z,24.55
2019-03-19T04:42:18.085Z,24.65
2019-03-19T04:44:46.772Z,24.45
2019-03-19T04:47:15.758Z,26.40
2019-03-19T04:49:44.455Z,34.45
2019-03-19T04:52:13.485Z,25.80
2019-03-19T04:54:42.423Z,23.57
2019-03-19T04:57:11.116Z,30.65
2019-03-19T04:59:39.793Z,21.75
2019-03-19T05:02:08.498Z,28.25
2019-03-19T05:04:37.810Z,32.98
2019-03-19T05:07:06.487Z,24.70
2019-03-19T05:09:36.016Z,28.95
2019-03-19T05:12:04.692Z,30.55
2019-03-19T05:14:33.370Z,27.60
2019-03-19T05:17:02.344Z,28.95
2019-03-19T05:19:31.031Z,27.50
2019-03-19T05:22:00.024Z,29.90
2019-03-19T05:24:28.824Z,23.32
2019-03-19T05:26:57.517Z,25.50
2019-03-19T05:29:26.479Z,28.25
2019-03-19T05:31:55.788Z,32.75
2019-03-19T05:34:24.460Z,28.35
2019-03-19T05:36:53.462Z,27.80
2019-03-19T05:39:22.663Z,26.25
2019-03-19T05:41:51.370Z,26.70
2019-03-19T05:44:20.352Z,28.83
2019-03-19T05:46:49.334Z,32.67
2019-03-19T05:49:18.632Z,33.48
2019-03-19T05:51:47.631Z,30.25
2019-03-19T05:54:16.312Z,32.65
2019-03-19T05:56:45.022Z,26.75
2019-03-19T05:59:14.296Z,34.05
2019-03-19T06:01:43.255Z,33.18
2019-03-19T06:04:11.953Z,41.83
2019-03-19T06:06:40.660Z,29.82
2019-03-19T06:09:09.564Z,32.65
2019-03-19T06:11:38.514Z,40.92
2019-03-19T06:14:07.432Z,35.83
2019-03-19T06:16:36.112Z,30.65
2019-03-19T06:19:04.797Z,36.03
2019-03-19T06:21:33.793Z,28.95
2019-03-19T06:24:02.462Z,32.20
2019-03-19T06:26:31.643Z,25.70
2019-03-19T06:29:00.331Z,29.23
2019-03-19T06:31:29.036Z,29.72
2019-03-19T06:33:57.947Z,33.02
2019-03-19T06:36:26.613Z,35.50
2019-03-19T06:38:55.627Z,29.72
2019-03-19T06:41:24.471Z,31.20
2019-03-19T06:43:53.498Z,29.60
2019-03-19T06:46:22.497Z,35.73
2019-03-19T06:48:51.497Z,27.00
2019-03-19T06:51:20.243Z,31.23
2019-03-19T06:53:49.044Z,32.00
2019-03-19T06:56:17.744Z,30.02
2019-03-19T06:58:46.422Z,28.57
2019-03-19T07:01:17.388Z,30.57
2019-03-19T07:03:46.166Z,28.00
2019-03-19T07:06:15.100Z,32.88
2019-03-19T07:08:43.789Z,28.60
2019-03-19T07:11:12.840Z,28.47
2019-03-19T07:13:41.844Z,39.90
2019-03-19T07:16:10.823Z,27.95
2019-03-19T07:18:41.920Z,35.08
2019-03-19T07:21:10.889Z,28.20
2019-03-19T07:23:41.670Z,28.57
2019-03-19T07:26:10.355Z,29.50
2019-03-19T07:28:39.049Z,36.35
2019-03-19T07:31:07.747Z,34.80
2019-03-19T07:33:36.675Z,28.98
2019-03-19T07:36:06.390Z,32.78
2019-03-19T07:38:35.456Z,29.95
2019-03-19T07:41:04.438Z,27.10
2019-03-19T07:43:33.150Z,39.27
2019-03-19T07:46:01.835Z,31.23
2019-03-19T07:48:30.517Z,40.75
2019-03-19T07:50:59.895Z,35.17
2019-03-19T07:53:28.841Z,31.75
2019-03-19T07:55:57.880Z,24.27
2019-03-19T07:58:35.848Z,29.60
2019-03-19T08:00:57.292Z,33.40
2019-03-19T08:03:26.322Z,36.35
2019-03-19T08:05:55.284Z,30.32
2019-03-19T08:08:23.977Z,26.97
2019-03-19T08:10:52.638Z,37.35
2019-03-19T08:13:21.430Z,34.05
2019-03-19T08:15:50.097Z,41.83
2019-03-19T08:18:19.081Z,49.33
2019-03-19T08:20:48.323Z,34.20
2019-03-19T08:23:17.019Z,37.55
2019-03-19T08:25:45.947Z,37.50
2019-03-19T08:28:14.634Z,30.85
2019-03-19T08:30:43.353Z,31.77
2019-03-19T08:33:13.386Z,39.67
2019-03-19T08:35:42.382Z,29.00
2019-03-19T08:38:11.340Z,32.98
2019-03-19T08:40:40.364Z,28.12
2019-03-19T08:43:09.040Z,30.45
2019-03-19T08:45:37.709Z,26.85
2019-03-19T08:48:06.727Z,27.32
2019-03-19T08:50:35.436Z,31.40
2019-03-19T08:53:04.916Z,44.15
2019-03-19T08:55:34.040Z,29.35
2019-03-19T08:58:02.725Z,26.97
2019-03-19T09:00:31.789Z,30.50
2019-03-19T09:03:00.735Z,32.28
2019-03-19T09:05:29.427Z,24.18
2019-03-19T09:07:58.351Z,26.77
2019-03-19T09:10:27.354Z,36.55
2019-03-19T09:12:56.332Z,27.73
2019-03-19T09:15:25.341Z,40.92
2019-03-19T09:17:54.264Z,34.75
2019-03-19T09:20:23.084Z,26.48
2019-03-19T09:22:52.057Z,31.55
2019-03-19T09:25:21.105Z,34.67
2019-03-19T09:27:49.850Z,30.52
2019-03-19T09:30:18.887Z,22.95
2019-03-19T09:32:47.664Z,35.60
2019-03-19T09:35:16.429Z,30.40
2019-03-19T09:37:57.190Z,28.23
2019-03-19T09:40:15.750Z,26.85
2019-03-19T09:42:44.877Z,30.40
2019-03-19T09:45:14.505Z,36.88
2019-03-19T09:47:43.288Z,27.70
2019-03-19T09:50:13.482Z,22.85
2019-03-19T09:52:42.588Z,25.95
2019-03-19T09:55:11.663Z,21.80
2019-03-19T09:57:40.679Z,23.18
2019-03-19T10:00:15.403Z,14.43
2019-03-19T10:02:44.162Z,24.98
2019-03-19T10:05:13.190Z,26.17
2019-03-19T10:07:43.306Z,21.97
2019-03-19T10:10:13.759Z,21.55
2019-03-19T10:12:42.709Z,23.60
2019-03-19T10:15:11.555Z,17.65
2019-03-19T10:17:40.230Z,22.90
2019-03-19T10:20:11.368Z,24.87
2019-03-19T10:22:40.337Z,14.70
2019-03-19T10:25:10.120Z,12.73
2019-03-19T10:27:39.165Z,18.37
2019-03-19T10:30:12.227Z,20.62
2019-03-19T10:32:40.988Z,15.98
2019-03-19T10:35:10.343Z,15.88
2019-03-19T10:37:39.408Z,18.65
2019-03-19T10:40:08.163Z,16.52
2019-03-19T10:42:36.880Z,18.32
2019-03-19T10:45:06.094Z,11.97
2019-03-19T10:47:35.065Z,17.02
2019-03-19T10:50:04.632Z,13.95
2019-03-19T10:52:35.201Z,19.32
2019-03-19T10:55:04.354Z,16.57
2019-03-19T10:57:33.032Z,22.05
2019-03-19T11:00:16.360Z,17.17
2019-03-19T11:02:47.997Z,18.75
2019-03-19T11:05:16.906Z,13.98
2019-03-19T11:07:46.054Z,14.18
2019-03-19T11:10:15.262Z,13.08
2019-03-19T11:12:44.097Z,12.93
2019-03-19T11:15:14.823Z,15.23
2019-03-19T11:17:43.828Z,13.60
2019-03-19T11:20:14.642Z,19.62
2019-03-19T11:22:43.487Z,20.48
2019-03-19T11:25:13.542Z,13.53
2019-03-19T11:27:43.019Z,9.93
2019-03-19T11:30:15.048Z,13.45
2019-03-19T11:35:11.762Z,11.38
2019-03-19T11:37:40.436Z,8.80
2019-03-19T11:40:09.445Z,12.00
2019-03-19T11:42:38.148Z,13.28
2019-03-19T11:45:08.029Z,9.40
2019-03-19T11:47:36.702Z,18.05
2019-03-19T11:50:07.874Z,12.03
2019-03-19T11:52:36.835Z,19.30
2019-03-19T11:55:06.651Z,14.05
2019-03-19T11:57:35.642Z,14.28
2019-03-19T12:00:13.258Z,18.12
2019-03-19T12:02:42.231Z,11.53
2019-03-19T12:05:11.325Z,11.55
2019-03-19T12:07:40.075Z,14.05
2019-03-19T12:10:09.208Z,17.42
2019-03-19T12:12:38.200Z,16.15
2019-03-19T12:15:07.432Z,14.65
2019-03-19T12:17:36.437Z,17.50
2019-03-19T12:20:05.881Z,8.25
2019-03-19T12:22:34.561Z,11.60
2019-03-19T12:25:03.601Z,17.05
2019-03-19T12:27:32.547Z,14.13
2019-03-19T12:30:01.256Z,10.50
2019-03-19T12:32:29.924Z,9.50
2019-03-19T12:35:01.531Z,19.05
2019-03-19T12:37:30.068Z,17.93
2019-03-19T12:39:58.756Z,13.93
2019-03-19T12:42:27.438Z,16.42
2019-03-19T12:44:56.172Z,12.95
2019-03-19T12:47:25.117Z,11.48
2019-03-19T12:49:54.071Z,10.40
2019-03-19T12:52:23.111Z,10.45
2019-03-19T12:54:51.829Z,12.70
2019-03-19T12:57:20.784Z,13.40
2019-03-19T12:59:49.477Z,10.05
2019-03-19T13:02:20.640Z,11.63
2019-03-19T13:04:49.647Z,14.37
2019-03-19T13:07:18.328Z,10.20
2019-03-19T13:09:47.589Z,15.88
2019-03-19T13:12:16.364Z,7.00
2019-03-19T13:14:45.052Z,10.45
2019-03-19T13:17:14.167Z,12.98
2019-03-19T13:19:43.084Z,13.78
2019-03-19T13:22:12.651Z,11.57
2019-03-19T13:24:41.656Z,11.73
2019-03-19T13:27:10.339Z,13.70
2019-03-19T13:29:39.035Z,16.27
2019-03-19T13:32:07.740Z,11.65
2019-03-19T13:34:36.419Z,10.53
2019-03-19T13:37:05.130Z,13.78
2019-03-19T13:39:33.815Z,5.95
2019-03-19T13:42:03.435Z,15.23
2019-03-19T13:44:32.368Z,15.72
2019-03-19T13:47:01.060Z,11.48
2019-03-19T13:49:30.042Z,10.58
2019-03-19T13:51:58.742Z,18.92
2019-03-19T13:54:27.664Z,11.80
2019-03-19T13:56:56.428Z,12.45
2019-03-19T13:59:25.402Z,8.08
2019-03-19T14:01:54.208Z,15.13
2019-03-19T14:04:22.895Z,14.07
2019-03-19T14:06:52.179Z,10.68
2019-03-19T14:09:20.866Z,10.35
2019-03-19T14:11:49.805Z,13.88
2019-03-19T14:14:18.496Z,12.40
2019-03-19T14:16:47.509Z,12.05
2019-03-19T14:19:16.218Z,11.75
2019-03-19T14:21:44.931Z,6.30
2019-03-19T14:24:13.898Z,13.15
2019-03-19T14:26:42.886Z,7.37
2019-03-19T14:29:11.929Z,10.15
2019-03-19T14:31:40.625Z,6.50
2019-03-19T14:34:10.173Z,10.93
2019-03-19T14:36:38.858Z,8.90
2019-03-19T14:39:08.853Z,10.18
2019-03-19T14:41:37.547Z,10.53
2019-03-19T14:44:06.298Z,6.72
2019-03-19T14:46:34.988Z,11.53
2019-03-19T14:49:03.733Z,7.15
2019-03-19T14:51:32.438Z,10.55
2019-03-19T14:54:01.120Z,10.28
2019-03-19T14:56:29.959Z,13.72
2019-03-19T14:58:58.909Z,10.05
2019-03-19T15:01:27.944Z,8.30
2019-03-19T15:03:56.643Z,15.15
2019-03-19T15:06:25.626Z,14.40
2019-03-19T15:08:54.312Z,10.05
2019-03-19T15:11:23.365Z,6.28
2019-03-19T15:13:55.106Z,12.50
2019-03-19T15:16:23.073Z,13.18
2019-03-19T15:18:52.085Z,7.55
2019-03-19T15:21:21.038Z,9.73
2019-03-19T15:23:49.723Z,7.80
2019-03-19T15:26:18.713Z,11.63
2019-03-19T15:28:47.389Z,9.45
2019-03-19T15:31:16.060Z,10.18
2019-03-19T15:33:44.727Z,9.60
2019-03-19T15:36:13.395Z,9.65
2019-03-19T15:38:42.918Z,6.67
2019-03-19T15:41:11.635Z,12.37
2019-03-19T15:43:40.317Z,8.60
2019-03-19T15:46:09.024Z,7.95
2019-03-19T15:48:38.320Z,11.35
2019-03-19T15:51:07.075Z,4.95
2019-03-19T15:53:35.755Z,7.67
2019-03-19T15:56:04.454Z,5.10
2019-03-19T15:58:33.456Z,9.40
2019-03-19T16:01:02.137Z,9.85
2019-03-19T16:03:31.147Z,9.40
2019-03-19T16:06:00.149Z,10.90
2019-03-19T16:08:29.140Z,6.42
2019-03-19T16:10:59.821Z,7.92
2019-03-19T16:13:28.556Z,6.45
2019-03-19T16:15:57.252Z,12.65
2019-03-19T16:18:26.179Z,14.18
2019-03-19T16:20:55.231Z,7.78
2019-03-19T16:23:23.923Z,9.05
2019-03-19T16:25:52.913Z,9.93
2019-03-19T16:28:21.898Z,8.53
2019-03-19T16:30:50.582Z,6.78
2019-03-19T16:33:19.578Z,7.70
2019-03-19T16:36:03.614Z,7.87
2019-03-19T16:38:33.665Z,9.85
2019-03-19T16:41:02.542Z,11.15
2019-03-19T16:43:31.927Z,11.57
2019-03-19T16:46:00.849Z,11.40
2019-03-19T16:48:29.814Z,20.80
2019-03-19T16:50:58.478Z,8.48
2019-03-19T16:53:27.164Z,7.12
2019-03-19T16:55:56.089Z,7.15
2019-03-19T16:58:25.060Z,11.08
2019-03-19T17:00:53.735Z,10.93
2019-03-19T17:03:22.428Z,18.25
2019-03-19T17:05:51.512Z,8.18
2019-03-19T17:08:20.198Z,8.15
2019-03-19T17:10:49.415Z,11.60
2019-03-19T17:13:18.105Z,9.03
2019-03-19T17:15:47.091Z,10.08
2019-03-19T17:18:16.160Z,12.33
2019-03-19T17:20:45.070Z,14.85
2019-03-19T17:23:13.793Z,13.83
2019-03-19T17:25:42.512Z,13.38
2019-03-19T17:28:21.895Z,14.15
2019-03-19T17:30:42.019Z,14.58
2019-03-19T17:33:11.295Z,8.58
2019-03-19T17:35:40.563Z,9.43
2019-03-19T17:38:09.234Z,9.13
2019-03-19T17:40:41.618Z,12.18
2019-03-19T17:43:08.763Z,9.55
2019-03-19T17:45:39.556Z,8.50
2019-03-19T17:48:16.432Z,13.72
2019-03-19T17:50:43.948Z,14.93
2019-03-19T17:53:12.669Z,13.40
2019-03-19T17:55:41.714Z,11.90
2019-03-19T17:58:10.472Z,11.90
2019-03-19T18:00:40.741Z,13.20
2019-03-19T18:03:09.525Z,15.38
2019-03-19T18:05:38.232Z,17.67
2019-03-19T18:08:07.596Z,11.20
2019-03-19T18:10:36.360Z,15.32
2019-03-19T18:13:06.757Z,17.23
2019-03-19T18:15:35.642Z,13.65
2019-03-19T18:18:04.533Z,16.57
2019-03-19T18:20:33.491Z,56.75
2019-03-19T18:23:02.419Z,39.08
2019-03-19T18:25:31.135Z,28.30
2019-03-19T18:28:00.093Z,25.72
2019-03-19T18:30:28.795Z,19.23
2019-03-19T18:32:59.220Z,20.90
2019-03-19T18:35:28.178Z,22.13
2019-03-19T18:37:57.150Z,17.40
2019-03-19T18:40:25.868Z,19.82
2019-03-19T18:42:54.858Z,18.40
2019-03-19T18:45:23.589Z,16.00
2019-03-19T18:47:52.251Z,17.20
2019-03-19T18:50:21.029Z,22.20
2019-03-19T18:52:49.780Z,18.40
2019-03-19T18:55:18.725Z,19.57
2019-03-19T18:57:47.819Z,13.22
2019-03-19T19:00:16.894Z,14.53
2019-03-19T19:02:50.277Z,14.23
2019-03-19T19:05:16.186Z,24.92
2019-03-19T19:07:45.237Z,17.82
2019-03-19T19:10:14.095Z,17.85
2019-03-19T19:12:43.291Z,19.05
2019-03-19T19:15:13.627Z,19.45
2019-03-19T19:17:42.417Z,28.90
2019-03-19T19:20:11.764Z,26.93
2019-03-19T19:22:40.586Z,24.47
2019-03-19T19:25:11.516Z,22.20
2019-03-19T19:27:40.493Z,29.32
2019-03-19T19:30:12.584Z,18.60
2019-03-19T19:35:09.350Z,19.15
2019-03-19T19:37:38.060Z,14.87
2019-03-19T19:40:08.456Z,10.03
2019-03-19T19:42:37.409Z,14.43
2019-03-19T19:45:07.147Z,15.80
2019-03-19T19:47:36.058Z,12.03
2019-03-19T19:50:05.816Z,12.75
2019-03-19T19:52:34.760Z,11.35
2019-03-19T19:55:03.798Z,7.50
2019-03-19T19:57:32.575Z,7.17
2019-03-19T20:00:02.082Z,40.80
2019-03-19T20:02:31.141Z,21.97
2019-03-19T20:05:03.167Z,16.82
2019-03-19T20:07:30.239Z,34.33
2019-03-19T20:09:59.450Z,15.15
2019-03-19T20:12:28.239Z,16.80
2019-03-19T20:14:57.240Z,15.58
2019-03-19T20:17:27.140Z,14.93
2019-03-19T20:19:55.946Z,11.55
2019-03-19T20:22:24.957Z,20.92
2019-03-19T20:24:53.672Z,14.23
2019-03-19T20:27:22.364Z,18.80
2019-03-19T20:29:51.080Z,23.32
2019-03-19T20:32:19.850Z,22.85
2019-03-19T20:34:48.801Z,18.10
2019-03-19T20:37:17.739Z,24.47
2019-03-19T20:39:46.449Z,16.10
2019-03-19T20:42:15.409Z,16.05
2019-03-19T20:44:44.128Z,17.10
2019-03-19T20:47:12.803Z,13.15
2019-03-19T20:49:47.914Z,16.52
2019-03-19T20:52:14.453Z,17.20
2019-03-19T20:54:43.430Z,15.38
2019-03-19T20:57:12.127Z,11.68
2019-03-19T20:59:40.824Z,18.62
2019-03-19T21:02:09.518Z,19.40
2019-03-19T21:04:38.469Z,16.67
2019-03-19T21:07:07.426Z,18.10
2019-03-19T21:09:36.108Z,14.07
2019-03-19T21:12:05.124Z,21.15
2019-03-19T21:14:33.800Z,36.00
2019-03-19T21:17:02.483Z,34.20
2019-03-19T21:19:31.477Z,34.43
2019-03-19T21:22:00.723Z,31.95
2019-03-19T21:24:29.780Z,38.88
2019-03-19T21:26:58.750Z,38.55
2019-03-19T21:29:27.801Z,28.47
2019-03-19T21:31:56.793Z,35.85
2019-03-19T21:34:27.371Z,35.03
2019-03-19T21:36:56.462Z,37.00
2019-03-19T21:39:25.648Z,34.83
2019-03-19T21:41:54.851Z,34.00
2019-03-19T21:44:35.691Z,32.80
2019-03-19T21:47:05.797Z,21.52
2019-03-19T21:49:35.101Z,9.03
2019-03-19T21:52:04.308Z,17.73
2019-03-19T21:54:33.065Z,10.80
2019-03-19T21:57:01.916Z,11.00
2019-03-19T21:59:30.721Z,10.08
2019-03-19T22:02:00.020Z,13.25
2019-03-19T22:04:31.199Z,12.53
2019-03-19T22:07:00.032Z,10.93
2019-03-19T22:09:29.017Z,9.88
2019-03-19T22:11:59.534Z,15.28
2019-03-19T22:14:28.333Z,10.08
2019-03-19T22:16:57.069Z,10.80
2019-03-19T22:19:25.754Z,17.52
2019-03-19T22:21:54.538Z,17.48
2019-03-19T22:24:23.583Z,22.55
2019-03-19T22:26:52.665Z,40.60
2019-03-19T22:29:21.684Z,47.93
2019-03-19T22:31:50.784Z,16.73
2019-03-19T22:34:19.863Z,19.07
2019-03-19T22:36:48.576Z,14.87
2019-03-19T22:39:18.140Z,11.20
2019-03-19T22:41:46.909Z,7.35
2019-03-19T22:44:16.043Z,12.90
2019-03-19T22:46:45.116Z,16.93
2019-03-19T22:49:13.882Z,12.33
2019-03-19T22:51:42.637Z,37.88
2019-03-19T22:54:11.461Z,18.02
2019-03-19T22:56:40.581Z,18.62
2019-03-19T22:59:09.365Z,15.88
2019-03-19T23:01:38.294Z,23.05
2019-03-19T23:04:09.432Z,23.42
2019-03-19T23:06:39.244Z,28.70
2019-03-19T23:09:08.415Z,22.20
2019-03-19T23:11:37.201Z,16.87
2019-03-19T23:14:06.307Z,13.93
2019-03-19T23:16:35.015Z,15.78
2019-03-19T23:19:03.752Z,16.80
2019-03-19T23:21:32.518Z,15.30
2019-03-19T23:24:01.207Z,12.23
2019-03-19T23:26:30.337Z,10.48
2019-03-19T23:28:59.029Z,18.82
2019-03-19T23:31:28.092Z,10.95
2019-03-19T23:33:57.102Z,14.00
2019-03-19T23:36:26.772Z,10.85
2019-03-19T23:38:55.469Z,14.53
2019-03-19T23:41:25.212Z,11.40
2019-03-19T23:43:54.156Z,13.65
2019-03-19T23:46:23.197Z,24.32
2019-03-19T23:48:51.889Z,16.12
2019-03-19T23:51:21.180Z,12.40
2019-03-19T23:53:50.173Z,11.93
2019-03-19T23:56:19.577Z,11.75
2019-03-19T23:58:48.430Z,16.27
